Time;durP1;ratioP1;P1;durP2;ratioP2;P2;SDS_P1;SDS_P2;PMS_P1;PMS_P2;Temp;Humidity;BMP_temperature;BMP_pressure;BME280_temperature;BME280_humidity;BME280_pressure;Samples;Min_cycle;Max_cycle;Signal;HPM_P1;HPM_P2
2021/05/23 00:02:11;;;;;;;11.55;1.95;;;;;;;9.36;100.00;101388.75;5092589;28;20070;-63
2021/05/23 00:04:38;;;;;;;6.50;2.55;;;;;;;9.36;100.00;101388.75;5092201;28;20047;-64
2021/05/23 00:07:06;;;;;;;6.22;1.85;;;;;;;9.36;100.00;101388.75;5092301;28;20040;-63
2021/05/23 00:09:31;;;;;;;8.43;2.17;;;;;;;9.34;100.00;101379.97;5092331;28;20048;-64
2021/05/23 00:11:57;;;;;;;4.82;1.65;;;;;;;9.36;100.00;101382.47;5092403;28;20039;-65
2021/05/23 00:14:24;;;;;;;6.75;1.67;;;;;;;9.36;100.00;101377.88;5092439;28;20048;-62
2021/05/23 00:16:50;;;;;;;6.35;2.25;;;;;;;9.38;100.00;101374.09;5092139;28;20473;-64
2021/05/23 00:19:16;;;;;;;5.85;2.22;;;;;;;9.38;100.00;101374.94;5092094;28;20036;-63
2021/05/23 00:21:42;;;;;;;4.03;2.00;;;;;;;9.40;100.00;101377.44;5092006;28;20040;-64
2021/05/23 00:24:09;;;;;;;7.78;1.63;;;;;;;9.40;100.00;101372.00;5091896;28;20044;-63
2021/05/23 00:26:37;;;;;;;7.10;2.40;;;;;;;9.39;100.00;101373.88;5091951;28;20031;-64
2021/05/23 00:29:05;;;;;;;6.07;1.95;;;;;;;9.37;100.00;101362.34;5091924;28;20536;-64
2021/05/23 00:31:32;;;;;;;7.35;2.83;;;;;;;9.35;100.00;101369.91;5091913;28;20094;-63
2021/05/23 00:33:58;;;;;;;9.82;3.10;;;;;;;9.27;100.00;101362.84;5091740;28;20032;-62
2021/05/23 00:36:25;;;;;;;8.75;2.70;;;;;;;9.19;100.00;101360.38;5091983;28;20394;-64
2021/05/23 00:38:51;;;;;;;10.88;3.00;;;;;;;9.14;100.00;101360.22;5091712;28;20039;-63
2021/05/23 00:41:17;;;;;;;8.10;2.72;;;;;;;9.08;100.00;101361.09;5091685;28;20067;-63
2021/05/23 00:43:43;;;;;;;9.02;2.78;;;;;;;9.04;100.00;101357.16;5091654;28;20044;-63
2021/05/23 00:46:08;;;;;;;8.23;2.60;;;;;;;9.01;100.00;101357.56;5091629;28;20371;-63
2021/05/23 00:48:34;;;;;;;7.97;2.95;;;;;;;8.99;100.00;101351.50;5091390;28;20077;-64
2021/05/23 00:51:00;;;;;;;12.25;3.05;;;;;;;8.99;100.00;101348.78;5090408;28;20058;-63
2021/05/23 00:53:25;;;;;;;9.98;2.67;;;;;;;8.98;100.00;101342.50;5091618;28;20046;-63
2021/05/23 00:55:51;;;;;;;6.72;2.72;;;;;;;8.98;100.00;101339.75;5090138;28;20032;-63
2021/05/23 00:58:18;;;;;;;9.10;2.47;;;;;;;8.98;100.00;101333.47;5091404;28;20043;-63
2021/05/23 01:00:48;;;;;;;9.82;2.67;;;;;;;9.01;100.00;101324.88;5091274;28;20051;-63
2021/05/23 01:03:29;;;;;;;7.57;2.42;;;;;;;9.01;100.00;101330.31;5091457;28;20032;-63
2021/05/23 01:06:05;;;;;;;12.48;3.08;;;;;;;9.02;100.00;101323.81;5091395;28;20389;-63
2021/05/23 01:08:33;;;;;;;8.10;2.72;;;;;;;9.03;100.00;101320.06;5091298;28;20150;-62
2021/05/23 01:11:03;;;;;;;7.68;3.40;;;;;;;9.03;100.00;101317.34;5091278;28;20045;-64
2021/05/23 01:13:36;;;;;;;7.70;2.58;;;;;;;9.06;100.00;101319.63;5091011;28;20084;-63
2021/05/23 01:16:07;;;;;;;7.65;2.30;;;;;;;9.09;100.00;101311.00;5091120;28;20055;-63
2021/05/23 01:18:51;;;;;;;6.53;2.35;;;;;;;9.11;100.00;101308.88;5091199;28;20032;-63
2021/05/23 01:21:19;;;;;;;10.13;3.30;;;;;;;9.11;100.00;101302.59;5091528;28;20623;-64
2021/05/23 01:23:54;;;;;;;8.38;2.60;;;;;;;9.11;100.00;101306.16;5089619;28;20470;-64
2021/05/23 01:26:23;;;;;;;9.15;2.55;;;;;;;9.12;100.00;101316.00;5091272;28;20102;-64
2021/05/23 01:28:55;;;;;;;18.52;3.45;;;;;;;9.17;100.00;101310.69;5090985;28;20116;-63
2021/05/23 01:31:22;;;;;;;10.43;2.55;;;;;;;9.22;100.00;101310.91;5091063;28;20042;-63
2021/05/23 01:33:52;;;;;;;6.55;1.48;;;;;;;9.31;100.00;101308.72;5090835;28;20539;-63
2021/05/23 01:36:21;;;;;;;5.43;0.82;;;;;;;9.42;100.00;101304.44;5091051;28;20028;-64
2021/05/23 01:38:47;;;;;;;7.68;1.30;;;;;;;9.52;100.00;101293.84;5090948;28;20036;-63
2021/05/23 01:41:13;;;;;;;6.13;2.35;;;;;;;9.61;100.00;101292.50;5090792;28;20101;-63
2021/05/23 01:43:40;;;;;;;8.05;1.27;;;;;;;9.67;100.00;101297.88;5091116;28;20028;-63
2021/05/23 01:46:07;;;;;;;7.07;1.40;;;;;;;9.72;100.00;101297.25;5090856;28;20498;-63
2021/05/23 01:48:36;;;;;;;6.38;1.55;;;;;;;9.74;100.00;101297.84;5090800;28;20067;-63
2021/05/23 01:51:02;;;;;;;6.35;0.98;;;;;;;9.77;100.00;101296.56;5090804;28;20088;-63
2021/05/23 01:53:28;;;;;;;6.68;1.25;;;;;;;9.78;100.00;101282.69;5090839;28;20056;-63
2021/05/23 01:55:54;;;;;;;8.85;1.83;;;;;;;9.81;100.00;101281.41;5090817;28;20043;-64
2021/05/23 01:58:20;;;;;;;5.78;1.30;;;;;;;9.82;100.00;101281.16;5090973;28;20043;-63
2021/05/23 02:00:48;;;;;;;8.35;1.40;;;;;;;9.84;100.00;101278.22;5090730;28;20043;-64
2021/05/23 02:03:16;;;;;;;11.30;1.80;;;;;;;9.85;100.00;101267.06;5090696;28;20061;-63
2021/05/23 02:05:48;;;;;;;10.50;1.60;;;;;;;9.86;100.00;101273.34;5090582;28;20032;-63
2021/05/23 02:08:16;;;;;;;5.40;0.80;;;;;;;9.86;100.00;101263.28;5090649;28;20482;-63
2021/05/23 02:10:42;;;;;;;4.60;1.02;;;;;;;9.89;100.00;101268.31;5090630;28;20028;-64
2021/05/23 02:13:08;;;;;;;6.18;0.88;;;;;;;9.91;100.00;101266.19;5090586;28;20382;-63
2021/05/23 02:15:36;;;;;;;5.80;1.13;;;;;;;9.91;100.00;101266.19;5090464;28;20089;-63
2021/05/23 02:18:03;;;;;;;11.55;1.30;;;;;;;9.92;100.00;101256.09;5090585;28;20043;-63
2021/05/23 02:20:30;;;;;;;10.50;1.48;;;;;;;9.95;100.00;101253.72;5090811;28;20036;-63
2021/05/23 02:23:00;;;;;;;6.28;1.20;;;;;;;9.96;100.00;101258.13;5094383;28;20109;-64
2021/05/23 02:25:29;;;;;;;5.53;1.20;;;;;;;9.97;100.00;101250.78;5094531;28;20035;-63
2021/05/23 02:28:01;;;;;;;7.07;1.15;;;;;;;9.97;100.00;101251.59;5094180;28;20387;-63
2021/05/23 02:30:51;;;;;;;6.55;0.90;;;;;;;9.97;100.00;101251.59;5094391;28;20073;-63
2021/05/23 02:33:19;;;;;;;5.88;1.48;;;;;;;9.98;100.00;101253.28;5094103;28;20028;-63
2021/05/23 02:35:47;;;;;;;4.93;0.90;;;;;;;10.01;100.00;101253.88;5094186;28;20090;-64
2021/05/23 02:38:15;;;;;;;4.13;1.67;;;;;;;10.03;100.00;101246.28;5094444;28;20035;-63
2021/05/23 02:40:42;;;;;;;3.35;1.10;;;;;;;10.06;100.00;101248.56;5094135;28;20459;-65
2021/05/23 02:43:09;;;;;;;5.15;0.90;;;;;;;10.09;100.00;101239.94;5093880;28;20040;-63
2021/05/23 02:45:35;;;;;;;8.82;1.10;;;;;;;10.14;100.00;101240.06;5093904;28;20032;-63
2021/05/23 02:48:03;;;;;;;9.30;1.83;;;;;;;10.15;100.00;101241.75;5093991;28;20032;-64
2021/05/23 02:50:30;;;;;;;6.00;1.60;;;;;;;10.16;100.00;101229.75;5092610;28;20147;-63
2021/05/23 02:52:57;;;;;;;5.00;1.00;;;;;;;10.18;100.00;101233.91;5092558;28;20836;-63
2021/05/23 02:55:24;;;;;;;4.38;1.20;;;;;;;10.20;100.00;101230.94;5093867;28;20082;-63
2021/05/23 02:57:51;;;;;;;7.57;1.20;;;;;;;10.21;100.00;101227.19;5093795;28;20035;-62
2021/05/23 03:00:21;;;;;;;5.85;0.95;;;;;;;10.23;100.00;101227.78;5093709;28;20047;-62
2021/05/23 03:02:48;;;;;;;5.65;1.25;;;;;;;10.25;100.00;101233.88;5093530;28;20474;-63
2021/05/23 03:05:19;;;;;;;6.53;1.00;;;;;;;10.23;100.00;101223.16;5093572;28;20036;-63
2021/05/23 03:07:48;;;;;;;4.90;1.23;;;;;;;10.23;100.00;101225.06;5093545;28;20032;-64
2021/05/23 03:10:16;;;;;;;6.03;1.20;;;;;;;10.24;100.00;101226.75;5093431;28;20074;-63
2021/05/23 03:12:42;;;;;;;10.18;1.73;;;;;;;10.23;100.00;101214.16;5093547;28;20028;-64
2021/05/23 03:15:12;;;;;;;11.32;1.85;;;;;;;10.20;100.00;101203.66;5093398;28;20398;-64
2021/05/23 03:17:38;;;;;;;9.30;1.35;;;;;;;10.21;100.00;101210.81;5093255;28;20044;-63
2021/05/23 03:20:07;;;;;;;10.43;2.22;;;;;;;10.19;100.00;101202.81;5093300;28;20028;-63
2021/05/23 03:22:37;;;;;;;13.60;1.45;;;;;;;10.18;100.00;101197.59;5093266;28;20399;-63
2021/05/23 03:25:04;;;;;;;6.70;1.95;;;;;;;10.17;100.00;101198.66;5093202;28;20429;-63
2021/05/23 03:27:30;;;;;;;11.18;1.77;;;;;;;10.15;100.00;101195.34;5093329;28;20485;-63
2021/05/23 03:29:55;;;;;;;8.35;1.15;;;;;;;10.12;100.00;101195.81;5093161;28;20040;-63
2021/05/23 03:32:21;;;;;;;11.73;2.03;;;;;;;10.13;100.00;101192.00;5091968;28;20044;-63
2021/05/23 03:34:47;;;;;;;8.98;1.30;;;;;;;10.15;100.00;101184.41;5091657;28;20052;-63
2021/05/23 03:37:13;;;;;;;9.10;1.42;;;;;;;10.15;100.00;101195.34;5091573;28;20047;-63
2021/05/23 03:39:39;;;;;;;11.43;2.38;;;;;;;10.15;100.00;101192.59;5092919;28;20040;-63
2021/05/23 03:42:06;;;;;;;7.22;1.00;;;;;;;10.13;100.00;101186.56;5092982;28;20036;-64
2021/05/23 03:44:31;;;;;;;11.50;1.38;;;;;;;10.14;100.00;101196.41;5092771;28;20391;-63
2021/05/23 03:46:57;;;;;;;9.20;1.55;;;;;;;10.14;100.00;101188.22;5092890;28;20069;-63
2021/05/23 03:49:23;;;;;;;12.93;1.30;;;;;;;10.14;100.00;101185.47;5092669;28;20039;-63
2021/05/23 03:51:48;;;;;;;11.18;1.00;;;;;;;10.17;100.00;101201.41;5092778;28;20043;-62
2021/05/23 03:54:14;;;;;;;17.02;2.03;;;;;;;10.17;100.00;101194.03;5092571;28;20098;-64
2021/05/23 03:56:40;;;;;;;15.68;1.65;;;;;;;10.16;100.00;101197.00;5092908;28;20535;-63
2021/05/23 03:59:06;;;;;;;9.70;1.77;;;;;;;10.18;100.00;101208.53;5092577;28;20115;-63
2021/05/23 04:01:32;;;;;;;7.25;0.82;;;;;;;10.20;100.00;101200.94;5092783;28;20054;-63
2021/05/23 04:04:00;;;;;;;8.68;1.65;;;;;;;10.22;100.00;101201.56;5092430;28;20390;-64
2021/05/23 04:06:26;;;;;;;10.90;1.15;;;;;;;10.25;100.00;101190.19;5092538;28;20043;-64
2021/05/23 04:08:52;;;;;;;3.92;0.98;;;;;;;10.29;100.00;101206.94;5092340;28;20040;-63
2021/05/23 04:11:22;;;;;;;7.38;1.20;;;;;;;10.32;100.00;101201.84;5092438;28;20050;-63
2021/05/23 04:13:49;;;;;;;6.82;1.45;;;;;;;10.35;100.00;101200.56;5092276;28;20440;-63
2021/05/23 04:16:15;;;;;;;7.60;1.80;;;;;;;10.36;100.00;101191.28;5091927;28;20056;-64
2021/05/23 04:18:41;;;;;;;7.18;1.50;;;;;;;10.34;100.00;101196.97;5092272;28;20050;-63
2021/05/23 04:21:07;;;;;;;6.80;1.35;;;;;;;10.31;100.00;101192.00;5092087;28;20093;-63
2021/05/23 04:23:32;;;;;;;6.20;1.05;;;;;;;10.32;100.00;101185.47;5092050;28;20063;-63
2021/05/23 04:26:00;;;;;;;5.22;1.13;;;;;;;10.29;100.00;101185.94;5092051;28;20047;-63
2021/05/23 04:28:26;;;;;;;6.80;0.80;;;;;;;10.24;100.00;101183.91;5092161;28;20059;-63
2021/05/23 04:30:52;;;;;;;6.68;1.00;;;;;;;10.23;100.00;101181.38;5091983;28;20036;-63
2021/05/23 04:33:18;;;;;;;7.82;1.55;;;;;;;10.23;100.00;101192.31;5091837;28;20461;-62
2021/05/23 04:35:44;;;;;;;5.85;0.82;;;;;;;10.24;100.00;101199.47;5091713;28;20474;-65
2021/05/23 04:38:10;;;;;;;8.10;1.13;;;;;;;10.24;100.00;101188.53;5091879;28;20028;-63
2021/05/23 04:40:36;;;;;;;4.78;1.38;;;;;;;10.25;100.00;101190.19;5091837;28;20079;-63
2021/05/23 04:43:02;;;;;;;8.85;1.67;;;;;;;10.25;100.00;101190.19;5091785;28;20039;-62
2021/05/23 04:45:29;;;;;;;5.70;1.30;;;;;;;10.24;100.00;101188.53;5091483;28;20083;-63
2021/05/23 04:47:55;;;;;;;6.57;1.13;;;;;;;10.25;100.00;101177.38;5091618;28;20513;-63
2021/05/23 04:50:21;;;;;;;8.88;1.20;;;;;;;10.28;100.00;101178.81;5091918;28;20543;-64
2021/05/23 04:52:47;;;;;;;4.93;1.25;;;;;;;10.29;100.00;101175.03;5091581;28;20490;-62
2021/05/23 04:55:13;;;;;;;8.88;2.00;;;;;;;10.31;100.00;101167.41;5091561;28;20044;-64
2021/05/23 04:57:40;;;;;;;7.05;1.00;;;;;;;10.33;100.00;101170.75;5091610;28;20125;-62
2021/05/23 05:00:09;;;;;;;9.00;1.48;;;;;;;10.36;100.00;101164.81;5091423;28;20110;-62
2021/05/23 05:02:35;;;;;;;11.60;1.50;;;;;;;10.40;100.00;101171.47;5091376;28;20066;-63
2021/05/23 05:05:03;;;;;;;4.43;1.02;;;;;;;10.43;100.00;101171.03;5091231;28;20044;-63
2021/05/23 05:07:29;;;;;;;8.05;1.50;;;;;;;10.43;100.00;101164.75;5091316;28;20466;-63
2021/05/23 05:09:56;;;;;;;7.53;0.90;;;;;;;10.45;100.00;101163.44;5091379;28;20036;-63
2021/05/23 05:12:22;;;;;;;7.35;1.73;;;;;;;10.47;100.00;101164.03;5089854;28;20134;-62
2021/05/23 05:14:47;;;;;;;7.50;1.27;;;;;;;10.47;100.00;101155.84;5091140;28;20034;-63
2021/05/23 05:17:13;;;;;;;8.88;1.00;;;;;;;10.50;100.00;101158.09;5091077;28;20406;-63
2021/05/23 05:19:40;;;;;;;10.75;1.65;;;;;;;10.53;100.00;101154.88;5091147;28;20056;-63
2021/05/23 05:22:06;;;;;;;6.78;1.27;;;;;;;10.54;100.00;101162.00;5091176;28;20038;-64
2021/05/23 05:24:31;;;;;;;7.93;1.20;;;;;;;10.54;100.00;101156.56;5090967;28;20122;-63
2021/05/23 05:26:57;;;;;;;7.75;1.08;;;;;;;10.54;100.00;101159.28;5091142;28;20035;-63
2021/05/23 05:29:23;;;;;;;7.57;0.80;;;;;;;10.56;100.00;101154.41;5090840;28;20050;-63
2021/05/23 05:31:49;;;;;;;7.18;1.45;;;;;;;10.57;100.00;101153.34;5091635;28;20505;-63
2021/05/23 05:34:15;;;;;;;7.70;1.60;;;;;;;10.60;100.00;101137.59;5090803;28;20032;-64
2021/05/23 05:36:41;;;;;;;5.10;1.15;;;;;;;10.64;100.00;101158.72;5090961;28;20482;-63
2021/05/23 05:39:06;;;;;;;9.07;1.73;;;;;;;10.67;100.00;101155.53;5091245;28;20123;-63
2021/05/23 05:41:32;;;;;;;8.35;1.27;;;;;;;10.68;100.00;101140.78;5090913;28;20127;-63
2021/05/23 05:43:58;;;;;;;7.82;1.30;;;;;;;10.72;100.00;101141.16;5091234;28;20470;-63
2021/05/23 05:46:24;;;;;;;5.38;1.25;;;;;;;10.77;100.00;101144.03;5090833;28;20038;-64
2021/05/23 05:48:49;;;;;;;9.40;2.03;;;;;;;10.80;100.00;101135.34;5090747;28;20044;-63
2021/05/23 05:51:15;;;;;;;5.50;1.80;;;;;;;10.81;100.00;101135.09;5090835;28;20068;-63
2021/05/23 05:53:41;;;;;;;8.65;1.90;;;;;;;10.84;100.00;101136.53;5090723;28;20535;-64
2021/05/23 05:56:07;;;;;;;8.55;1.48;;;;;;;10.86;100.00;101137.13;5092061;28;20044;-63
2021/05/23 05:58:33;;;;;;;9.50;1.90;;;;;;;10.90;100.00;101124.63;5094861;28;20101;-62
2021/05/23 06:00:59;;;;;;;8.45;1.88;;;;;;;10.94;100.00;101133.22;5094895;28;20043;-64
2021/05/23 06:03:25;;;;;;;6.97;1.40;;;;;;;10.96;100.00;101122.88;5094656;28;20048;-63
2021/05/23 06:05:50;;;;;;;13.43;1.60;;;;;;;11.00;100.00;101127.63;5094702;28;20040;-63
2021/05/23 06:08:16;;;;;;;11.95;2.15;;;;;;;11.03;100.00;101126.31;5093358;28;20049;-64
2021/05/23 06:10:42;;;;;;;17.23;2.28;;;;;;;11.07;100.00;101122.03;5094660;28;20040;-63
2021/05/23 06:13:08;;;;;;;15.52;1.48;;;;;;;11.11;100.00;101117.78;5094575;28;20132;-63
2021/05/23 06:15:33;;;;;;;12.50;2.15;;;;;;;11.17;100.00;101122.28;5094425;28;20048;-63
2021/05/23 06:17:59;;;;;;;7.20;1.10;;;;;;;11.22;100.00;101119.63;5094391;28;20075;-63
2021/05/23 06:20:25;;;;;;;10.40;1.40;;;;;;;11.22;100.00;101135.22;5094399;28;20064;-63
2021/05/23 06:22:51;;;;;;;10.15;1.23;;;;;;;11.24;100.00;101122.13;5094366;28;20072;-63
2021/05/23 06:25:17;;;;;;;10.88;1.48;;;;;;;11.27;100.00;101116.19;5094396;28;20097;-62
2021/05/23 06:27:42;;;;;;;8.93;1.15;;;;;;;11.30;100.00;101121.19;5094208;28;20051;-63
2021/05/23 06:30:08;;;;;;;8.20;1.50;;;;;;;11.31;100.00;101109.19;5094273;28;20036;-63
2021/05/23 06:32:35;;;;;;;10.98;1.42;;;;;;;11.34;100.00;101116.91;5094245;28;20138;-63
2021/05/23 06:35:01;;;;;;;8.70;1.33;;;;;;;11.34;100.00;101117.72;5094096;28;20060;-63
2021/05/23 06:37:26;;;;;;;4.57;1.17;;;;;;;11.37;100.00;101119.16;5094258;28;20508;-64
2021/05/23 06:39:52;;;;;;;10.05;1.67;;;;;;;11.36;100.00;101114.75;5094134;28;20149;-64
2021/05/23 06:42:18;;;;;;;6.32;1.42;;;;;;;11.37;100.00;101116.41;5094124;28;20032;-63
2021/05/23 06:44:44;;;;;;;11.13;1.67;;;;;;;11.38;100.00;101120.81;5094220;28;20043;-63
2021/05/23 06:47:10;;;;;;;8.30;1.98;;;;;;;11.43;100.00;101126.38;5094050;28;20047;-63
2021/05/23 06:49:36;;;;;;;9.82;1.13;;;;;;;11.40;100.00;101115.91;5093941;28;20043;-63
2021/05/23 06:52:02;;;;;;;7.10;1.35;;;;;;;11.43;100.00;101118.16;5093888;28;20043;-64
2021/05/23 06:54:27;;;;;;;6.00;1.15;;;;;;;11.44;100.00;101115.19;5093801;28;20040;-63
2021/05/23 06:56:54;;;;;;;10.55;2.33;;;;;;;11.45;100.00;101118.75;5093757;28;20043;-63
2021/05/23 06:59:20;;;;;;;9.50;1.52;;;;;;;11.50;100.00;101116.16;5093757;28;20032;-63
2021/05/23 07:01:46;;;;;;;14.45;1.35;;;;;;;11.55;100.00;101113.50;5093672;28;20047;-63
2021/05/23 07:04:13;;;;;;;11.00;2.00;;;;;;;11.61;100.00;101107.06;5093502;28;20036;-63
2021/05/23 07:06:39;;;;;;;11.95;1.33;;;;;;;11.70;100.00;101113.00;5093445;28;20035;-63
2021/05/23 07:09:04;;;;;;;8.57;1.58;;;;;;;11.75;100.00;101108.44;5092206;28;20116;-63
2021/05/23 07:11:30;;;;;;;9.35;1.48;;;;;;;11.80;100.00;101105.00;5093642;28;20477;-64
2021/05/23 07:13:56;;;;;;;13.18;1.40;;;;;;;11.86;100.00;101103.22;5075181;28;20436;-63
2021/05/23 07:16:21;;;;;;;9.50;1.95;;;;;;;11.88;100.00;101103.81;5093203;28;20031;-64
2021/05/23 07:18:48;;;;;;;9.13;1.40;;;;;;;11.88;100.00;101104.63;5093321;28;20062;-63
2021/05/23 07:21:13;;;;;;;9.20;1.55;;;;;;;11.89;100.00;101102.72;5093399;28;20044;-63
2021/05/23 07:23:39;;;;;;;9.30;1.35;;;;;;;11.92;100.00;101102.22;5093580;28;20047;-63
2021/05/23 07:26:05;;;;;;;8.82;1.83;;;;;;;11.88;100.00;101098.31;5091866;28;20115;-64
2021/05/23 07:28:32;;;;;;;8.25;1.30;;;;;;;11.88;100.00;101101.91;5093186;28;20036;-63
2021/05/23 07:30:58;;;;;;;11.27;1.83;;;;;;;11.91;100.00;101106.03;5093126;28;20044;-64
2021/05/23 07:33:24;;;;;;;18.15;1.50;;;;;;;11.91;100.00;101111.50;5093113;28;20040;-63
2021/05/23 07:35:50;;;;;;;9.05;1.17;;;;;;;11.91;100.00;101103.31;5093207;28;20032;-63
2021/05/23 07:38:15;;;;;;;10.38;1.50;;;;;;;11.87;100.00;101094.75;5093177;28;20420;-64
2021/05/23 07:40:41;;;;;;;10.32;1.60;;;;;;;11.80;100.00;101077.63;5093141;28;20478;-63
2021/05/23 07:43:07;;;;;;;6.82;1.38;;;;;;;11.83;100.00;101087.28;5092823;28;20082;-63
2021/05/23 07:45:32;;;;;;;6.95;1.33;;;;;;;11.87;100.00;101072.03;5092869;28;20243;-64
2021/05/23 07:47:58;;;;;;;9.45;1.77;;;;;;;11.92;100.00;101085.81;5092861;28;20070;-63
2021/05/23 07:50:24;;;;;;;11.27;1.83;;;;;;;11.97;100.00;101088.63;5092926;28;20032;-63
2021/05/23 07:52:50;;;;;;;15.05;2.83;;;;;;;11.99;100.00;101084.59;5092785;28;20043;-62
2021/05/23 07:55:16;;;;;;;13.70;2.30;;;;;;;11.97;100.00;101077.69;5092783;28;20036;-63
2021/05/23 07:57:41;;;;;;;9.93;1.95;;;;;;;12.01;100.00;101090.66;5092791;28;20074;-63
2021/05/23 08:00:08;;;;;;;15.35;2.75;;;;;;;12.01;100.00;101078.88;5092506;28;20040;-63
2021/05/23 08:02:34;;;;;;;13.25;1.30;;;;;;;12.02;100.00;101096.97;5092526;28;20506;-63
2021/05/23 08:05:00;;;;;;;7.95;1.40;;;;;;;12.00;100.00;101096.38;5092045;28;20042;-63
2021/05/23 08:07:26;;;;;;;15.07;2.50;;;;;;;12.02;100.00;101097.78;5092442;28;20120;-64
2021/05/23 08:09:51;;;;;;;12.63;1.40;;;;;;;11.98;100.00;101090.31;5092424;28;20044;-63
2021/05/23 08:12:18;;;;;;;15.90;1.85;;;;;;;12.00;100.00;101088.16;5092353;28;20043;-63
2021/05/23 08:14:44;;;;;;;13.98;2.22;;;;;;;12.03;100.00;101087.66;5092249;28;20028;-63
2021/05/23 08:17:10;;;;;;;17.98;2.30;;;;;;;12.06;100.00;101088.00;5092021;28;20102;-63
2021/05/23 08:19:36;;;;;;;12.98;1.98;;;;;;;12.11;100.00;101079.03;5091697;28;20040;-63
2021/05/23 08:22:02;;;;;;;11.07;2.47;;;;;;;12.20;100.00;101065.78;5092180;28;20105;-64
2021/05/23 08:24:30;;;;;;;15.20;2.78;;;;;;;12.28;100.00;101074.41;5091961;28;20482;-64
2021/05/23 08:26:57;;;;;;;16.13;1.80;;;;;;;12.28;100.00;101066.19;5092103;28;20032;-64
2021/05/23 08:29:23;;;;;;;8.30;1.83;;;;;;;12.32;100.00;101063.78;5091823;28;20036;-63
2021/05/23 08:31:49;;;;;;;12.00;2.38;;;;;;;12.32;100.00;101045.47;5092177;28;20116;-64
2021/05/23 08:34:15;;;;;;;16.27;2.03;;;;;;;12.35;100.00;101034.00;5091918;28;20067;-63
2021/05/23 08:36:41;;;;;;;14.57;1.75;;;;;;;12.40;100.00;101062.56;5091847;28;20040;-63
2021/05/23 08:39:07;;;;;;;14.10;1.70;;;;;;;12.40;100.00;101037.91;5091867;28;20044;-63
2021/05/23 08:41:33;;;;;;;15.18;1.83;;;;;;;12.47;100.00;101044.88;5091728;28;20089;-63
2021/05/23 08:43:59;;;;;;;16.17;2.00;;;;;;;12.46;100.00;101042.38;5091679;28;20028;-64
2021/05/23 08:46:29;;;;;;;12.35;2.13;;;;;;;12.52;100.00;101055.09;5091702;28;20093;-63
2021/05/23 08:48:56;;;;;;;13.77;2.15;;;;;;;12.53;100.00;101040.31;5091433;28;20123;-63
2021/05/23 08:51:22;;;;;;;14.20;2.17;;;;;;;12.67;100.00;101022.44;5091662;28;20046;-64
2021/05/23 08:53:48;;;;;;;15.07;2.60;;;;;;;12.72;100.00;101057.31;5091456;28;20040;-65
2021/05/23 08:56:14;;;;;;;15.30;2.20;;;;;;;12.70;100.00;101059.47;5091497;28;20401;-65
2021/05/23 08:58:40;;;;;;;13.55;2.05;;;;;;;12.69;100.00;101053.16;5091405;28;20036;-65
2021/05/23 09:01:07;;;;;;;15.23;3.28;;;;;;;12.70;100.00;101060.31;5091428;28;20062;-66
2021/05/23 09:03:32;;;;;;;22.67;2.88;;;;;;;12.65;100.00;101047.34;5091402;28;20032;-65
2021/05/23 09:05:58;;;;;;;17.90;2.97;;;;;;;12.68;100.00;101035.06;5090068;28;20032;-65
2021/05/23 09:08:29;;;;;;;11.48;1.90;;;;;;;12.72;100.00;101038.13;5091375;28;20063;-62
2021/05/23 09:10:57;;;;;;;16.50;2.03;;;;;;;12.60;100.00;101046.44;5091184;28;20386;-63
2021/05/23 09:13:34;;;;;;;11.55;1.90;;;;;;;12.49;100.00;101039.13;5089887;28;20036;-62
2021/05/23 09:16:04;;;;;;;16.70;2.83;;;;;;;12.53;100.00;101037.56;5091102;28;20036;-61
2021/05/23 09:18:49;;;;;;;15.73;2.42;;;;;;;12.43;100.00;101037.41;5091127;28;20119;-63
2021/05/23 09:21:24;;;;;;;15.73;2.50;;;;;;;12.40;100.00;101026.94;5091157;28;20040;-62
2021/05/23 09:23:57;;;;;;;28.83;3.97;;;;;;;12.42;100.00;101052.19;5091067;28;20055;-62
2021/05/23 09:26:25;;;;;;;18.15;2.72;;;;;;;12.45;100.00;101029.75;5091142;28;20035;-62
2021/05/23 09:28:52;;;;;;;17.52;2.38;;;;;;;12.46;100.00;101035.00;5091039;28;20032;-62
2021/05/23 09:31:23;;;;;;;16.75;2.95;;;;;;;12.45;100.00;101040.72;5091152;28;20032;-62
2021/05/23 09:33:52;;;;;;;20.17;2.95;;;;;;;12.47;100.00;101038.56;5091282;28;20470;-62
2021/05/23 09:36:20;;;;;;;17.33;2.95;;;;;;;12.49;100.00;101036.38;5090956;28;20127;-62
2021/05/23 09:38:52;;;;;;;19.05;3.03;;;;;;;12.52;100.00;101025.78;5090977;28;20063;-63
2021/05/23 09:41:25;;;;;;;17.92;3.03;;;;;;;12.61;100.00;101034.41;5090986;28;20036;-62
2021/05/23 09:44:09;;;;;;;19.17;3.50;;;;;;;12.60;100.00;101022.59;5090932;28;20101;-62
2021/05/23 09:46:35;;;;;;;16.73;2.70;;;;;;;12.62;100.00;101025.94;5090882;28;20382;-63
2021/05/23 09:49:01;;;;;;;19.58;2.40;;;;;;;12.72;100.00;101011.56;5090758;28;20036;-62
2021/05/23 09:51:27;;;;;;;22.67;3.97;;;;;;;12.81;100.00;101022.91;5090748;28;20524;-64
2021/05/23 09:54:00;;;;;;;21.60;3.67;;;;;;;12.92;100.00;101021.97;5090666;28;20044;-62
2021/05/23 09:56:32;;;;;;;29.35;3.15;;;;;;;13.01;100.00;101022.34;5090805;28;20080;-63
2021/05/23 09:58:58;;;;;;;23.58;3.78;;;;;;;13.05;100.00;101018.03;5090710;28;20028;-62
2021/05/23 10:01:27;;;;;;;19.63;2.38;;;;;;;13.09;100.00;101002.72;5090840;28;20481;-63
2021/05/23 10:03:57;;;;;;;13.82;2.33;;;;;;;13.12;100.00;100997.56;5090426;28;20530;-63
2021/05/23 10:06:28;;;;;;;22.27;3.22;;;;;;;13.20;100.00;100990.84;5090569;28;20474;-63
2021/05/23 10:08:55;;;;;;;16.70;2.60;;;;;;;13.16;100.00;100989.63;5090553;28;20040;-63
2021/05/23 10:11:21;;;;;;;20.58;3.22;;;;;;;13.07;100.00;100993.94;5090581;28;20036;-62
2021/05/23 10:13:47;;;;;;;20.13;2.88;;;;;;;12.94;100.00;100995.97;5090625;28;20051;-62
2021/05/23 10:16:13;;;;;;;15.77;3.30;;;;;;;12.92;100.00;100998.13;5090572;28;20043;-63
2021/05/23 10:18:39;;;;;;;25.92;3.55;;;;;;;12.78;100.00;100974.91;5090748;28;20127;-65
2021/05/23 10:21:06;;;;;;;24.08;3.35;;;;;;;12.89;100.00;100993.16;5090609;28;20035;-64
2021/05/23 10:23:53;;;;;;;20.25;2.90;;;;;;;12.75;100.00;100982.81;5090541;28;20451;-63
2021/05/23 10:26:25;;;;;;;18.17;3.17;;;;;;;12.62;100.00;100959.31;5090796;28;20042;-64
2021/05/23 10:28:53;;;;;;;28.02;3.63;;;;;;;12.59;100.00;100987.25;5090416;28;20039;-62
2021/05/23 10:31:30;;;;;;;25.58;3.42;;;;;;;12.56;100.00;100974.06;5089107;28;20437;-63
2021/05/23 10:33:56;;;;;;;30.30;5.13;;;;;;;12.62;100.00;100978.50;5090400;28;20410;-63
2021/05/23 10:36:31;;;;;;;21.02;2.75;;;;;;;12.69;100.00;100962.75;5090367;28;20036;-63
2021/05/23 10:38:58;;;;;;;31.10;3.88;;;;;;;12.65;100.00;100964.31;5090289;28;20497;-63
2021/05/23 10:41:25;;;;;;;26.58;4.35;;;;;;;12.62;100.00;100975.78;5090429;28;20415;-63
2021/05/23 10:43:59;;;;;;;25.45;3.85;;;;;;;12.60;100.00;100956.00;5092599;28;20036;-62
2021/05/23 10:46:25;;;;;;;17.52;2.67;;;;;;;12.57;100.00;100945.56;5093847;28;20474;-62
2021/05/23 10:48:57;;;;;;;32.05;4.03;;;;;;;12.52;100.00;100948.25;5093969;28;20092;-63
2021/05/23 10:51:26;;;;;;;32.58;4.47;;;;;;;12.38;100.00;100932.16;5093844;28;20036;-63
2021/05/23 10:53:53;;;;;;;25.45;3.30;;;;;;;12.28;100.00;100942.13;5093836;28;20032;-63
2021/05/23 10:56:29;;;;;;;24.65;3.78;;;;;;;12.23;100.00;100939.31;5093817;28;20055;-62
2021/05/23 10:59:03;;;;;;;35.63;4.95;;;;;;;12.20;100.00;100939.81;5093778;28;20059;-63
2021/05/23 11:01:42;;;;;;;35.17;4.00;;;;;;;12.15;100.00;100926.03;5093596;28;20474;-62
2021/05/23 11:04:16;;;;;;;23.77;4.20;;;;;;;12.13;100.00;100911.78;5093511;28;20036;-63
2021/05/23 11:06:44;;;;;;;32.17;5.90;;;;;;;12.09;100.00;100916.91;5093664;28;20040;-62
2021/05/23 11:09:16;;;;;;;27.30;4.97;;;;;;;12.06;100.00;100915.53;5093496;28;20488;-64
2021/05/23 11:11:43;;;;;;;36.88;4.90;;;;;;;12.00;100.00;100923.91;5093610;28;20043;-63
2021/05/23 11:14:15;;;;;;;38.30;4.90;;;;;;;11.99;100.00;100919.53;5093363;28;20035;-62
2021/05/23 11:16:58;;;;;;;32.70;4.53;;;;;;;11.97;100.00;100907.97;5091803;28;20040;-63